NCAR-RAP Real-Time Weather Data

Output produced by METARs form (08 May 2021  01:59 UTC)
found at http://weather.rap.ucar.edu/surface/
 
KDEW 080053Z AUTO 28004KT 10SM FEW060 BKN090 OVC100 10/M01 A3002 RMK AO2 SLP171 T01001011
KDEW 072353Z AUTO 33014G23KT 10SM FEW049 SCT055 BKN070 11/M01 A3001 RMK AO2 PK WND 27028/2312 WSHFT 2318 RAB25E39 SLP163 P0000 60000 T01061006 10150 20100 53007
KDEW 072338Z AUTO 32013KT 10SM -RA FEW049 BKN060 OVC080 10/M01 A3001 RMK AO2 PK WND 27028/2312 WSHFT 2318 RAB25 P0000 T01001011
KDEW 072324Z AUTO 30017G25KT 10SM SCT060 BKN080 BKN110 10/M01 A3000 RMK AO2 PK WND 27028/2312 WSHFT 2304 T01001011
KDEW 072253Z AUTO 22015G23KT 10SM FEW065 SCT080 BKN110 13/M08 A2998 RMK AO2 PK WND 23030/2239 WSHFT 2206 SLP151 T01331078
KDEW 072227Z AUTO 23009G23KT 10SM FEW060 SCT075 BKN095 13/M07 A2998 RMK AO2 WSHFT 2206 T01281072
KDEW 072153Z AUTO 18012G19KT 10SM BKN100 BKN120 13/M04 A2998 RMK AO2 PK WND 19028/2117 SLP153 T01281039
KDEW 072053Z AUTO 23015G22KT 10SM FEW085 SCT110 14/M07 A2999 RMK AO2 PK WND 19029/2001 SLP152 T01391072 56008
KDEW 071953Z AUTO 20012G22KT 10SM SCT080 BKN100 14/M07 A2999 RMK AO2 SLP154 T01391067
KDEW 071853Z AUTO 22016KT 10SM CLR 14/M04 A3000 RMK AO2 SLP154 T01391044
KDEW 071753Z AUTO 21011G24KT 10SM FEW060 13/M04 A3001 RMK AO2 SLP157 T01281039 10128 20072 58003
KDEW 071653Z AUTO 19011G21KT 10SM CLR 11/M04 A3002 RMK AO2 SLP159 T01111039
KDEW 071553Z AUTO 21011KT 10SM CLR 10/M01 A3003 RMK AO2 SLP163 T01001006
KDEW 071453Z AUTO 22011KT 10SM CLR 09/M01 A3002 RMK AO2 SLP161 T00891006 53013
KDEW 071353Z AUTO 20008KT 10SM CLR 08/M01 A3001 RMK AO2 SLP156 T00831011